Relevés horaires St-Hubert (Belgique)


Relevés horaires à St-Hubert - Samedi 07 Juill. 2018
Heure UTC1 Température [°C] Vent [km/h] Hum. [%] Pres.4 [hPa] Visi. [Km] Nébu. [octa] Préc.5 [mm] Cond.
2m. Res. Ros. Dir.2 Vit. Moy. Raf.3
23:00 13.4 13.4 9.1 NNO 0.0 0.0 0.0 75 1024.5(0.0/3h) 45 0/8 -- --
22:00 14.6 14.6 9.7 NNO 0.0 0.0 0.0 72 1024.4(0.1/3h) 45 0/8 -- --
21:00 17.5 17.5 9.6 NNO 0.0 0.0 0.0 60 1023.6(0.1/3h) 45 0/8 -- --
20:00 18.7 18.7 9.9 NNO 0.0 0.0 0.0 57 1023.3(0.1/3h) 45 0/8 -- --
19:00 20.1 20.1 10.1 NNO 0.0 0.0 0.0 53 1023(-0.3/3h) 35 0/8 -- --
18:00 20.7 20.7 10.4 NNO 0.0 0.0 0.0 52 1022.8(-0.5/3h) 30 0/8 0/12h
--
17:00 21.3 21.3 9.6 NNO 0.0 0.0 0.0 47 1022.8(-0.3/3h) 35 0/8 -- --
16:00 22.6 22.6 10.2 NNO 0.0 0.0 0.0 45 1022.7(0.1/3h) 30 0/8 -- --
15:00 21.9 21.9 9.8 NNO 0.0 0.0 0.0 46 1023.1(0.1/3h) 30 0/8 -- --
14:00 22.1 22.1 10.4 NNO 0.0 0.0 0.0 47 1023(0.1/3h) 35 0/8 -- --
13:00 22.8 22.8 10.7 NNO 0.0 0.0 0.0 46 1022.6(-0.2/3h) 27 0/8 -- --
12:00 22.4 22.4 10.5 NNO 0.0 0.0 0.0 47 1022.8(0.1/3h) 35 0/8 0/6h
--
11:00 22.4 22.4 10.7 NNO 0.0 0.0 0.0 47 1022.8(0.3/3h) 25 0/8 -- --
10:00 20.9 20.9 11.2 NNO 0.0 0.0 0.0 54 1023.2(0.6/3h) 27 0/8 -- --
09:00 20.1 20.1 12.8 NNO 0.0 0.0 0.0 63 1023.2(0.7/3h) 21 0/8 -- --
08:00 19.0 19.0 12.4 NNO 0.0 0.0 0.0 66 1023.2(0.6/3h) 18 0/8 -- --
07:00 18.0 18.0 12.7 NNO 0.0 0.0 0.0 71 1023.2(0.7/3h) 14 0/8 -- --
06:00 17.2 17.2 12.7 NNO 0.0 0.0 0.0 75 1023.1(0.6/3h) 12 0/8 0/12h
--
05:00 15.3 15.3 12.6 NNO 0.0 0.0 0.0 84 1023.3(-0.2/3h) 12 0/8 -- --
04:00 15.9 15.9 11.9 NNO 0.0 0.0 0.0 77 1022.9(-0.2/3h) 15 0/8 -- --
03:00 15.0 15.0 11.4 NNO 0.0 0.0 0.0 79 1023(-0.4/3h) 30 0/8 -- --
02:00 16.2 16.2 11.5 NNO 0.0 0.0 0.0 74 1022.9(-0.3/3h) 26 0/8 -- --
01:00 16.0 16.0 12.2 NNO 0.0 0.0 0.0 78 1023.1(0.1/3h) 29 0/8 -- --
00:00 18.1 18.1 11.3 NNO 0.0 0.0 0.0 64 1022.8(0.1/3h) 30 0/8 0/6h
0/24h
--

1 Coordinated Universal Time. Actuellement il est 11:00 locale et 09:00 UTC.

2 Le vent souffle depuis la direction indiquée vers la direction oposée.

3 Les rafales max. sont disponible 40 min après l'heure du relevé.

4 Pour les stations d'altitude (plus de 600m) le géopotentiel du niveau le plus proche de la pression obligatoire est indiqué.

5 Les stations disposant d'un diffuseur peuvent indiquer "trace". Cela signifie que des précipitations ont touchés le sol mais que la quantité est inférieure à 0.1 mm.

Récapitulatif de la journée
Température [°C] Vent [km/h] Ensoleillement4 [h] Precipitations totale5 [mm] Pression [Hpa]
Min1 Max.2 Moy.3 Max. Min Max.
14.0 23.6 0 0.0 0 h 0 min 0 1022.6 1024.5

1 Température minimale relevée entre 18:00 UTC la veille et 18:00 UTC le jour donné.

2 Température maximale relevée entre 06:00 UTC le jour donné et 06:00 UTC le lendemain.

3 Vent moyen de la journée basé sur les relevés horaires.

4 Ensoleillement en heures relevé entre 06:00 UTC la veille et 06:00 UTC le jour donné.

5 Précipitations totales tombées entre 06:00 UTC la jour donné et 06:00 UTC le lendemain.

Graphiques horaires